Luka, Czech Republic

5:54 PM CET on December 21, 2014 (GMT +0100)
Vilemov | Change Station
CLOSE
Current Station
Personal Weather Station
Location: Vilemov, MORAVA
Elevation: 1253 ft
Nearby Weather Stations

Elev 1253 ft 49.64 °N, 17.00 °E | Updated 4 minutes ago

Clear
Clear
38.1 °F
Feels Like 36 °F
N
3.1
Wind Variable Wind from SSW
Gusts 5.4 mph

Today
High -- | Low -- °F
--% Chance of Precip.
Yesterday
High -- | Low -- °F
Precip. -- in
7:46 AM 3:54 PM
Waning Crescent, 0% visible
Pressure 30.30 in
Visibility -9999.0 miles
Clouds
Windchill 36 °F
Dew Point 30 °F
Humidity 73%
Rainfall 0.07 in
Snow Depth Not available.
UV Not available.
Pollen Not available.
Air Quality Not available.
Flu Activity Not available.
METAR LKTB 211630Z 26010KT CAVOK 04/M01 Q1026 NOSIG

More Conditions Fewer Conditions

Pressure 30.30 in
Visibility -9999.0 miles
Clouds
Windchill 36 °F
Dew Point 30 °F
Humidity 73%
Rainfall 0.07 in
Snow Depth Not available.
UV Not available.
Pollen Not available.
Air Quality Not available.
Flu Activity Not available.
METAR LKTB 211630Z 26010KT CAVOK 04/M01 Q1026 NOSIG

More Conditions Fewer Conditions

10-Day Weather Forecast

Almanac

Astronomy

Dec. 21, 2014 Rise Set
Actual Time
Civil Twilight
Nautical Twilight
Astronomical Twilight
Moon
Length of Visible Light
Length of Day
Tomorrow will be .
, % of the Moon is Illuminated

Today's Extremes

Country Highs Country Lows

Community

WunderPhotos

Upload Photos

1,779,433 photos uploaded!

WunderBlogs® & News

Nearby

Air Quality

  Air Quality AQ Index Pollutant
Not available.

Snow Depth

Station Depth Elevation

Earthquake Activity

City Distance Mag. Time & Date
Minimum magnitude displayed is 2.5.

Coastal Water Temperatures

Place Temperature

Nearby Weather Stations